Time;durP1;ratioP1;P1;durP2;ratioP2;P2;SDS_P1;SDS_P2;PMS_P1;PMS_P2;Temp;Humidity;BMP_temperature;BMP_pressure;BME280_temperature;BME280_humidity;BME280_pressure;Samples;Min_cycle;Max_cycle;Signal;HPM_P1;HPM_P2
2022/03/18 00:02:04;;;;;;;;;;;;;;;7.31;71.59;103521.84;5013129;28;20374;-85
2022/03/18 00:04:30;;;;;;;;;;;;;;;7.27;71.93;103517.97;5036235;28;19925;-84
2022/03/18 00:06:55;;;;;;;;;;;;;;;7.28;72.05;103519.81;5028003;28;19917;-84
2022/03/18 00:09:21;;;;;;;;;;;;;;;7.37;71.84;103519.91;5028278;28;20310;-83
2022/03/18 00:11:46;;;;;;;;;;;;;;;7.33;71.60;103505.66;5028210;28;19918;-84
2022/03/18 00:14:12;;;;;;;;;;;;;;;7.34;71.76;103514.34;5038517;28;19929;-85
2022/03/18 00:16:37;;;;;;;;;;;;;;;7.33;71.46;103512.53;5011705;28;19917;-85
2022/03/18 00:19:02;;;;;;;;;;;;;;;7.35;71.25;103511.03;5011741;28;20345;-85
2022/03/18 00:21:28;;;;;;;;;;;;;;;7.21;71.77;103504.28;5011691;28;19917;-84
2022/03/18 00:23:53;;;;;;;;;;;;;;;7.30;71.53;103510.53;5017334;28;19928;-85
2022/03/18 00:26:19;;;;;;;;;;;;;;;7.27;71.67;103506.66;5017912;28;20004;-85
2022/03/18 00:28:44;;;;;;;;;;;;;;;7.25;71.32;103509.06;5027787;28;19918;-85
2022/03/18 00:31:10;;;;;;;;;;;;;;;7.28;71.62;103513.69;5013181;28;19924;-84
2022/03/18 00:33:35;;;;;;;;;;;;;;;7.22;71.58;103510.44;5023146;28;20399;-85
2022/03/18 00:36:01;;;;;;;;;;;;;;;7.23;71.44;103507.97;5030886;28;19999;-84
2022/03/18 00:38:27;;;;;;;;;;;;;;;7.19;71.61;103515.25;5011537;28;19956;-85
2022/03/18 00:40:54;;;;;;;;;;;;;;;7.10;72.05;103516.06;5032163;28;19917;-85
2022/03/18 00:43:19;;;;;;;;;;;;;;;7.11;71.52;103515.34;5030523;28;20294;-85
2022/03/18 00:45:45;;;;;;;;;;;;;;;7.12;71.78;103516.25;5012520;28;19918;-84
2022/03/18 00:53:38;;;;;;;;;;;;;;;7.11;71.59;103511.78;5039776;28;19928;-86
2022/03/18 00:56:03;;;;;;;;;;;;;;;7.07;72.02;103518.34;5013791;28;20016;-84
2022/03/18 00:58:29;;;;;;;;;;;;;;;6.96;72.27;103512.69;5030751;28;19971;-84
2022/03/18 01:00:55;;;;;;;;;;;;;;;7.01;72.21;103511.53;5032204;28;20374;-86
2022/03/18 01:03:23;;;;;;;;;;;;;;;7.02;72.15;103513.38;5030925;28;20005;-84
2022/03/18 01:05:48;;;;;;;;;;;;;;;7.04;71.88;103515.38;5026263;28;20012;-84
2022/03/18 01:08:15;;;;;;;;;;;;;;;7.03;72.00;103516.16;5030154;28;20079;-84
2022/03/18 01:10:40;;;;;;;;;;;;;;;6.99;72.24;103519.16;5031955;28;19921;-85
2022/03/18 01:13:06;;;;;;;;;;;;;;;7.00;72.02;103520.06;5030810;28;19917;-85
2022/03/18 01:15:31;;;;;;;;;;;;;;;6.92;72.16;103525.34;5016665;28;19921;-84
2022/03/18 01:17:57;;;;;;;;;;;;;;;6.93;72.05;103524.56;5042399;28;19921;-84
2022/03/18 01:20:22;;;;;;;;;;;;;;;6.90;72.23;103516.44;5015685;28;20413;-84
2022/03/18 01:22:47;;;;;;;;;;;;;;;6.97;71.85;103527.53;5015810;28;19924;-84
2022/03/18 01:25:13;;;;;;;;;;;;;;;6.84;72.67;103517.44;5038649;28;19921;-87
2022/03/18 01:27:39;;;;;;;;;;;;;;;6.86;72.36;103522.03;5031956;28;20291;-85
2022/03/18 01:30:05;;;;;;;;;;;;;;;6.76;72.74;103526.03;5034948;28;20301;-84
2022/03/18 01:32:33;;;;;;;;;;;;;;;6.85;72.27;103533.16;5017909;28;19913;-85
2022/03/18 01:34:58;;;;;;;;;;;;;;;6.85;72.33;103529.66;5033301;28;20070;-85
2022/03/18 01:37:23;;;;;;;;;;;;;;;6.83;72.40;103532.06;5030331;28;20008;-85
2022/03/18 01:39:49;;;;;;;;;;;;;;;6.89;72.14;103526.66;5014443;28;20011;-85
2022/03/18 01:42:14;;;;;;;;;;;;;;;6.76;72.55;103533.81;5014544;28;20301;-85
2022/03/18 01:44:41;;;;;;;;;;;;;;;6.87;72.22;103534.25;5004969;28;19977;-86
2022/03/18 01:47:07;;;;;;;;;;;;;;;6.81;72.48;103532.66;5026638;28;19921;-87
2022/03/18 01:49:32;;;;;;;;;;;;;;;6.78;72.26;103534.91;5027491;28;19918;-85
2022/03/18 01:51:58;;;;;;;;;;;;;;;6.71;72.49;103530.69;4995781;28;19918;-86
2022/03/18 01:57:08;;;;;;;;;;;;;;;6.77;72.45;103533.03;4995851;28;19984;-86
2022/03/18 01:59:34;;;;;;;;;;;;;;;6.67;72.70;103533.69;5010831;28;20395;-85
2022/03/18 02:01:59;;;;;;;;;;;;;;;6.76;72.25;103526.94;4994443;28;20526;-84
2022/03/18 02:04:25;;;;;;;;;;;;;;;6.71;72.51;103530.69;5000737;28;20383;-85
2022/03/18 02:06:50;;;;;;;;;;;;;;;6.79;72.13;103524.66;5030520;28;19945;-86
2022/03/18 02:09:16;;;;;;;;;;;;;;;6.71;72.08;103533.28;5030286;28;19918;-86
2022/03/18 02:11:41;;;;;;;;;;;;;;;6.60;72.93;103532.03;5030350;28;19976;-86
2022/03/18 02:14:07;;;;;;;;;;;;;;;6.59;73.00;103532.81;5018693;28;19928;-85
2022/03/18 02:16:32;;;;;;;;;;;;;;;6.48;73.28;103526.38;5026914;28;20284;-86
2022/03/18 02:18:58;;;;;;;;;;;;;;;6.63;72.64;103537.59;4995270;28;19917;-86
2022/03/18 02:21:23;;;;;;;;;;;;;;;6.59;72.95;103538.00;5026932;28;19925;-86
2022/03/18 02:23:49;;;;;;;;;;;;;;;6.56;72.95;103534.13;5021569;28;19929;-86
2022/03/18 02:26:15;;;;;;;;;;;;;;;6.57;72.70;103542.09;4994008;28;19917;-85
2022/03/18 02:28:41;;;;;;;;;;;;;;;6.54;73.10;103533.97;5010353;28;19918;-86
2022/03/18 02:31:06;;;;;;;;;;;;;;;6.60;72.52;103542.44;5010067;28;19917;-86
2022/03/18 02:33:32;;;;;;;;;;;;;;;6.50;73.15;103540.47;4996818;28;19928;-85
2022/03/18 02:35:58;;;;;;;;;;;;;;;6.50;72.88;103545.66;4996205;28;20031;-85
2022/03/18 02:38:24;;;;;;;;;;;;;;;6.59;72.61;103548.38;5037861;28;19928;-85
2022/03/18 02:40:50;;;;;;;;;;;;;;;6.45;73.20;103554.56;5019558;28;19951;-86
2022/03/18 02:43:16;;;;;;;;;;;;;;;6.42;72.92;103562.03;5052025;28;19952;-85
2022/03/18 02:45:41;;;;;;;;;;;;;;;6.42;73.50;103553.31;5036362;28;19956;-86
2022/03/18 02:48:06;;;;;;;;;;;;;;;6.42;72.94;103549.03;5036725;28;19970;-86
2022/03/18 02:50:33;;;;;;;;;;;;;;;6.35;73.40;103558.53;5054379;28;19917;-86
2022/03/18 02:52:59;;;;;;;;;;;;;;;6.43;72.95;103560.34;5036720;28;19917;-86
2022/03/18 02:55:24;;;;;;;;;;;;;;;6.41;72.96;103560.16;5034825;28;20019;-86
2022/03/18 02:57:49;;;;;;;;;;;;;;;6.38;73.18;103564.09;5036261;28;20471;-84
2022/03/18 03:00:16;;;;;;;;;;;;;;;6.40;73.16;103560.91;5036285;28;19917;-84
2022/03/18 03:02:42;;;;;;;;;;;;;;;6.36;73.25;103565.59;5036369;28;19917;-84
2022/03/18 03:08:01;;;;;;;;;;;;;;;6.38;73.29;103567.59;5046523;28;19928;-84
2022/03/18 03:10:30;;;;;;;;;;;;;;;6.37;72.87;103576.16;5048087;28;19921;-83
2022/03/18 03:12:57;;;;;;;;;;;;;;;6.39;73.31;103576.31;5049243;28;19918;-85
2022/03/18 03:15:22;;;;;;;;;;;;;;;6.39;72.84;103574.66;5032022;28;19927;-85
2022/03/18 03:17:48;;;;;;;;;;;;;;;6.36;73.01;103581.16;5033764;28;20313;-85
2022/03/18 03:20:13;;;;;;;;;;;;;;;6.38;72.81;103583.19;5015907;28;20424;-85
2022/03/18 03:22:40;;;;;;;;;;;;;;;6.35;72.86;103581.88;5049600;28;19983;-85
2022/03/18 03:25:05;;;;;;;;;;;;;;;6.39;72.63;103592.81;5035474;28;19983;-83
2022/03/18 03:27:31;;;;;;;;;;;;;;;6.43;72.93;103596.69;5051583;28;19921;-85
2022/03/18 03:30:03;;;;;;;;;;;;;;;6.35;73.08;103597.47;5048986;28;19975;-83
2022/03/18 03:32:29;;;;;;;;;;;;;;;6.34;72.67;103599.13;5048720;28;20394;-84
2022/03/18 03:34:55;;;;;;;;;;;;;;;6.24;72.90;103599.72;5048747;28;19921;-83
2022/03/18 03:37:21;;;;;;;;;;;;;;;6.38;72.29;103600.44;5028647;28;19932;-85
2022/03/18 03:39:46;;;;;;;;;;;;;;;6.37;72.50;103601.16;5028873;28;20322;-84
2022/03/18 03:42:12;;;;;;;;;;;;;;;6.37;72.27;103606.34;5028153;28;19917;-84
2022/03/18 03:44:37;;;;;;;;;;;;;;;6.28;72.48;103611.41;5011632;28;19921;-84
2022/03/18 03:47:03;;;;;;;;;;;;;;;6.32;72.59;103613.59;5013609;28;20000;-84
2022/03/18 03:49:28;;;;;;;;;;;;;;;6.32;72.69;103613.59;5012315;28;19925;-85
2022/03/18 03:51:54;;;;;;;;;;;;;;;6.32;72.47;103621.38;5012380;28;19924;-85
2022/03/18 03:54:19;;;;;;;;;;;;;;;6.27;72.28;103620.84;5012594;28;19922;-84
2022/03/18 03:56:44;;;;;;;;;;;;;;;6.23;72.23;103631.63;5012027;28;19924;-84
2022/03/18 03:59:10;;;;;;;;;;;;;;;6.25;72.09;103632.72;5028113;28;19925;-84
2022/03/18 04:01:35;;;;;;;;;;;;;;;6.23;72.16;103634.22;5005912;28;19929;-84
2022/03/18 04:04:01;;;;;;;;;;;;;;;6.21;72.19;103634.78;5008459;28;20025;-85
2022/03/18 04:06:26;;;;;;;;;;;;;;;6.25;72.21;103640.50;5024911;28;19918;-85
2022/03/18 04:08:51;;;;;;;;;;;;;;;6.29;72.34;103647.00;4993278;28;19918;-85
2022/03/18 04:11:17;;;;;;;;;;;;;;;6.25;72.39;103642.19;4995826;28;19979;-85
2022/03/18 04:13:42;;;;;;;;;;;;;;;6.19;72.38;103641.47;5011612;28;20413;-85
2022/03/18 04:16:08;;;;;;;;;;;;;;;6.22;72.07;103642.75;5028059;28;19971;-86
2022/03/18 04:18:34;;;;;;;;;;;;;;;6.27;72.29;103651.09;5013307;28;20299;-86
2022/03/18 04:21:00;;;;;;;;;;;;;;;6.26;72.00;103642.34;5029699;28;19925;-85
2022/03/18 04:23:26;;;;;;;;;;;;;;;6.19;72.13;103650.16;4993196;28;19922;-86
2022/03/18 04:25:51;;;;;;;;;;;;;;;6.20;72.19;103653.69;4993440;28;19924;-86
2022/03/18 04:28:17;;;;;;;;;;;;;;;6.24;72.01;103658.50;5024806;28;19917;-86
2022/03/18 04:30:43;;;;;;;;;;;;;;;6.21;72.19;103659.06;5024695;28;20000;-86
2022/03/18 04:33:08;;;;;;;;;;;;;;;6.18;72.31;103660.34;5011063;28;19922;-86
2022/03/18 04:35:34;;;;;;;;;;;;;;;6.17;72.50;103667.22;5011761;28;19918;-85
2022/03/18 04:37:59;;;;;;;;;;;;;;;6.14;72.24;103652.94;5027121;28;19925;-86
2022/03/18 04:40:25;;;;;;;;;;;;;;;6.19;72.11;103657.94;5031362;28;19917;-87
2022/03/18 04:42:50;;;;;;;;;;;;;;;6.17;72.17;103658.53;5030221;28;19921;-86
2022/03/18 04:45:17;;;;;;;;;;;;;;;6.18;71.79;103673.34;5031316;28;19949;-86
2022/03/18 04:47:42;;;;;;;;;;;;;;;6.17;72.08;103667.22;5031422;28;19921;-86
2022/03/18 04:50:08;;;;;;;;;;;;;;;6.15;72.13;103668.72;5031803;28;19924;-87
2022/03/18 04:52:34;;;;;;;;;;;;;;;6.12;72.45;103670.97;5018188;28;20314;-86
2022/03/18 04:54:59;;;;;;;;;;;;;;;6.12;72.13;103676.16;5044319;28;19921;-85
2022/03/18 04:57:26;;;;;;;;;;;;;;;6.11;72.37;103677.78;5012653;28;19924;-88
2022/03/18 04:59:56;;;;;;;;;;;;;;;6.13;72.34;103679.66;5044393;28;19917;-86
2022/03/18 05:02:21;;;;;;;;;;;;;;;6.09;72.28;103681.88;5026499;28;19921;-85
2022/03/18 05:04:48;;;;;;;;;;;;;;;6.11;72.52;103690.75;5044283;28;20310;-83
2022/03/18 05:07:14;;;;;;;;;;;;;;;6.08;72.36;103695.59;5027659;28;19972;-83
2022/03/18 05:09:40;;;;;;;;;;;;;;;6.14;72.06;103694.47;5027522;28;20390;-83
2022/03/18 05:12:07;;;;;;;;;;;;;;;6.14;72.03;103695.41;5039213;28;19921;-86
2022/03/18 05:14:34;;;;;;;;;;;;;;;6.03;72.08;103704.53;5027441;28;19922;-86
2022/03/18 05:16:59;;;;;;;;;;;;;;;6.10;72.12;103698.41;5012368;28;20314;-85
2022/03/18 05:19:25;;;;;;;;;;;;;;;6.07;72.31;103704.13;5027531;28;20386;-85
2022/03/18 05:21:50;;;;;;;;;;;;;;;6.12;72.04;103704.69;5012144;28;20314;-85
2022/03/18 05:24:16;;;;;;;;;;;;;;;6.02;72.32;103707.84;5012553;28;19961;-84
2022/03/18 05:26:41;;;;;;;;;;;;;;;6.03;72.40;103713.94;5044188;28;19925;-83
2022/03/18 05:29:07;;;;;;;;;;;;;;;6.14;71.88;103712.63;5043876;28;20008;-82
2022/03/18 05:31:33;;;;;;;;;;;;;;;6.04;72.05;103719.34;5045484;28;20283;-84
2022/03/18 05:33:59;;;;;;;;;;;;;;;6.08;71.84;103716.38;5032911;28;19925;-84
2022/03/18 05:36:24;;;;;;;;;;;;;;;6.02;71.86;103717.31;5031408;28;19921;-85
2022/03/18 05:38:50;;;;;;;;;;;;;;;6.07;72.06;103723.94;5033902;28;19990;-84
2022/03/18 05:41:16;;;;;;;;;;;;;;;6.08;71.76;103716.38;5033471;28;19917;-84
2022/03/18 05:43:43;;;;;;;;;;;;;;;6.07;71.68;103727.47;5033343;28;20313;-84
2022/03/18 05:46:09;;;;;;;;;;;;;;;5.99;72.07;103720.47;5034104;28;19916;-85
2022/03/18 05:48:34;;;;;;;;;;;;;;;5.92;72.27;103720.41;5032257;28;19924;-86
2022/03/18 05:51:02;;;;;;;;;;;;;;;5.97;72.18;103727.13;5016571;28;19921;-85
2022/03/18 05:53:28;;;;;;;;;;;;;;;5.86;72.17;103727.44;5038683;28;19948;-84
2022/03/18 05:58:39;;;;;;;;;;;;;;;5.98;72.39;103723.78;5033231;28;20298;-86
2022/03/18 06:01:06;;;;;;;;;;;;;;;6.16;71.64;103743.25;5048793;28;19928;-84
2022/03/18 06:03:33;;;;;;;;;;;;;;;5.96;71.99;103725.25;5050176;28;19921;-83
2022/03/18 06:05:58;;;;;;;;;;;;;;;5.92;72.23;103723.91;5034922;28;19920;-83
2022/03/18 06:13:51;;;;;;;;;;;;;;;5.90;71.52;103716.72;5033613;28;19924;-84
2022/03/18 06:16:17;;;;;;;;;;;;;;;5.96;71.52;103725.25;5041389;28;19928;-86
2022/03/18 06:18:42;;;;;;;;;;;;;;;5.94;71.27;103721.53;5043447;28;19963;-85
2022/03/18 06:21:15;;;;;;;;;;;;;;;5.96;71.25;103722.66;5044281;28;20484;-84
2022/03/18 06:23:40;;;;;;;;;;;;;;;5.93;71.31;103732.66;5026040;28;20059;-83
2022/03/18 06:26:06;;;;;;;;;;;;;;;5.93;70.77;103732.66;5056327;28;20011;-84
2022/03/18 06:28:32;;;;;;;;;;;;;;;5.88;71.17;103736.34;5039929;28;19921;-84
2022/03/18 06:31:13;;;;;;;;;;;;;;;5.90;71.19;103727.09;5053361;28;20387;-85
2022/03/18 06:33:44;;;;;;;;;;;;;;;5.91;71.17;103737.66;5050162;28;19970;-83
2022/03/18 06:36:12;;;;;;;;;;;;;;;5.84;71.47;103744.50;5061295;28;19916;-85
2022/03/18 06:38:38;;;;;;;;;;;;;;;5.87;71.57;103743.22;5059731;28;19917;-85
2022/03/18 06:41:03;;;;;;;;;;;;;;;5.85;71.70;103744.69;5067718;28;19944;-86
2022/03/18 06:43:29;;;;;;;;;;;;;;;5.93;71.40;103745.63;5057107;28;19920;-88
2022/03/18 06:45:55;;;;;;;;;;;;;;;5.88;71.40;103747.66;5060420;28;19916;-86
2022/03/18 06:48:21;;;;;;;;;;;;;;;5.89;71.52;103746.91;5039272;28;20404;-88
2022/03/18 06:50:46;;;;;;;;;;;;;;;5.82;72.02;103759.91;5040994;28;20692;-88
2022/03/18 06:53:12;;;;;;;;;;;;;;;5.81;71.91;103755.44;5036020;28;19928;-85
2022/03/18 06:55:37;;;;;;;;;;;;;;;5.83;71.41;103756.53;5051485;28;19963;-88
2022/03/18 06:58:02;;;;;;;;;;;;;;;5.91;71.31;103750.63;5034198;28;20400;-86
2022/03/18 07:00:28;;;;;;;;;;;;;;;5.92;71.53;103755.06;5034672;28;20019;-84
2022/03/18 07:02:53;;;;;;;;;;;;;;;5.86;71.80;103758.56;5034561;28;19921;-85
2022/03/18 07:05:19;;;;;;;;;;;;;;;5.82;72.00;103757.31;5024247;28;19928;-86
2022/03/18 07:07:44;;;;;;;;;;;;;;;5.81;71.34;103760.63;5046574;28;19921;-83
2022/03/18 07:10:12;;;;;;;;;;;;;;;5.76;71.72;103764.34;5048301;28;19925;-84
2022/03/18 07:12:40;;;;;;;;;;;;;;;5.83;71.58;103756.53;5035588;28;19929;-80
2022/03/18 07:15:06;;;;;;;;;;;;;;;5.87;71.69;103760.44;5035593;28;20352;-81
2022/03/18 07:20:16;;;;;;;;;;;;;;;5.88;71.36;103760.63;5034666;28;19928;-83
2022/03/18 07:22:42;;;;;;;;;;;;;;;5.79;71.63;103761.19;5034577;28;19925;-82
2022/03/18 07:25:08;;;;;;;;;;;;;;;5.83;70.95;103773.78;5039452;28;20424;-83
2022/03/18 07:27:33;;;;;;;;;;;;;;;5.86;71.33;103768.94;5037453;28;19928;-84
2022/03/18 07:29:59;;;;;;;;;;;;;;;5.72;71.69;103773.41;5053167;28;20306;-84
2022/03/18 07:32:24;;;;;;;;;;;;;;;5.79;71.94;103771.56;5033416;28;20321;-83
2022/03/18 07:34:50;;;;;;;;;;;;;;;5.79;71.48;103774.16;5030946;28;20431;-84
2022/03/18 07:37:15;;;;;;;;;;;;;;;5.87;71.06;103760.44;5035224;28;19921;-84
2022/03/18 07:39:41;;;;;;;;;;;;;;;5.87;71.06;103765.63;5035061;28;19978;-83
2022/03/18 07:42:06;;;;;;;;;;;;;;;5.86;70.52;103772.50;5051905;28;19920;-83
2022/03/18 07:44:32;;;;;;;;;;;;;;;5.73;70.98;103779.50;5017824;28;21596;-84
2022/03/18 07:46:57;;;;;;;;;;;;;;;5.86;70.54;103775.09;5043860;28;19924;-85
2022/03/18 07:49:22;;;;;;;;;;;;;;;5.88;70.44;103767.47;5032682;28;19944;-84
2022/03/18 07:51:48;;;;;;;;;;;;;;;5.89;70.58;103766.75;5039735;28;19921;-84
2022/03/18 07:54:13;;;;;;;;;;;;;;;5.90;70.22;103781.56;5046485;28;19921;-84
2022/03/18 07:56:39;;;;;;;;;;;;;;;5.91;70.74;103765.28;5041222;28;19972;-84
2022/03/18 07:59:04;;;;;;;;;;;;;;;5.71;71.28;103771.56;5048217;28;20000;-83
2022/03/18 08:01:30;;;;;;;;;;;;;;;5.82;70.75;103774.50;5044320;28;20377;-85
2022/03/18 08:03:56;;;;;;;;;;;;;;;5.86;70.44;103775.09;5032751;28;19944;-86
2022/03/18 08:06:21;;;;;;;;;;;;;;;5.79;70.97;103772.47;5039700;28;20007;-85
2022/03/18 08:08:47;;;;;;;;;;;;;;;5.80;70.87;103779.53;5051611;28;20455;-85
2022/03/18 08:11:13;;;;;;;;;;;;;;;5.71;71.31;103776.75;5029864;28;20361;-85
2022/03/18 08:13:39;;;;;;;;;;;;;;;5.75;71.13;103770.25;5036809;28;19917;-84
2022/03/18 08:16:05;;;;;;;;;;;;;;;5.79;71.04;103777.66;5048835;28;19928;-85
2022/03/18 08:18:30;;;;;;;;;;;;;;;5.74;70.89;103778.78;5023499;28;20023;-85
2022/03/18 08:20:56;;;;;;;;;;;;;;;5.71;70.86;103770.59;5033925;28;19917;-85
2022/03/18 08:23:23;;;;;;;;;;;;;;;5.70;71.69;103771.38;5032479;28;19921;-85
2022/03/18 08:25:48;;;;;;;;;;;;;;;5.71;71.37;103755.06;5015813;28;20382;-85
2022/03/18 08:28:13;;;;;;;;;;;;;;;5.53;72.09;103769.31;5034629;28;20063;-86
2022/03/18 08:30:40;;;;;;;;;;;;;;;5.68;71.49;103775.44;5035983;28;19944;-86
2022/03/18 08:33:05;;;;;;;;;;;;;;;5.60;71.88;103770.97;5023134;28;19916;-85
2022/03/18 08:35:31;;;;;;;;;;;;;;;5.61;71.25;103758.22;5034830;28;19943;-82
2022/03/18 08:37:56;;;;;;;;;;;;;;;5.47;71.92;103771.13;5051991;28;19921;-83
2022/03/18 08:40:26;;;;;;;;;;;;;;;5.78;71.12;103759.31;5025738;28;19947;-83
2022/03/18 08:42:52;;;;;;;;;;;;;;;5.76;70.81;103760.78;5031612;28;19921;-84
2022/03/18 08:45:18;;;;;;;;;;;;;;;5.81;70.65;103760.63;5046028;28;19921;-84
2022/03/18 08:47:44;;;;;;;;;;;;;;;5.83;70.35;103750.44;5043240;28;19963;-83
2022/03/18 08:50:09;;;;;;;;;;;;;;;5.74;70.93;103755.44;5025726;28;19917;-84
2022/03/18 08:52:35;;;;;;;;;;;;;;;5.58;71.30;103756.91;5041324;28;19924;-84
2022/03/18 08:55:00;;;;;;;;;;;;;;;5.63;71.29;103759.31;5020455;28;20019;-86
2022/03/18 08:57:28;;;;;;;;;;;;;;;5.68;66.09;103744.31;5032741;28;20310;-83
2022/03/18 08:59:57;;;;;;;;;;;;;;;5.63;66.28;103750.59;5039916;28;20347;-85
2022/03/18 09:02:22;;;;;;;;;;;;;;;5.66;67.67;103750.97;5019463;28;19924;-85
2022/03/18 09:04:51;;;;;;;;;;;;;;;5.77;68.27;103744.50;5034282;28;19917;-85
2022/03/18 09:07:17;;;;;;;;;;;;;;;5.77;68.81;103747.09;5022912;28;19917;-85
2022/03/18 09:09:42;;;;;;;;;;;;;;;5.94;68.78;103746.53;5014689;28;19925;-86
2022/03/18 09:12:09;;;;;;;;;;;;;;;5.71;68.76;103742.09;5031763;28;19917;-85
2022/03/18 09:14:34;;;;;;;;;;;;;;;5.78;69.11;103739.50;5032035;28;19923;-84
2022/03/18 09:17:00;;;;;;;;;;;;;;;6.06;68.76;103743.78;5014478;28;20033;-85
2022/03/18 09:19:25;;;;;;;;;;;;;;;5.92;69.15;103739.50;5017522;28;20631;-85
2022/03/18 09:21:51;;;;;;;;;;;;;;;6.09;68.91;103746.75;5017604;28;20397;-84
2022/03/18 09:24:16;;;;;;;;;;;;;;;6.03;68.92;103747.69;5033931;28;19925;-84
2022/03/18 09:26:42;;;;;;;;;;;;;;;6.07;69.08;103755.09;5033878;28;20451;-85
2022/03/18 09:29:07;;;;;;;;;;;;;;;6.04;69.43;103745.28;5034090;28;20008;-85
2022/03/18 09:31:33;;;;;;;;;;;;;;;6.02;69.00;103741.56;5047793;28;20378;-84
2022/03/18 09:33:59;;;;;;;;;;;;;;;5.99;69.52;103753.22;5029089;28;19921;-84
2022/03/18 09:36:24;;;;;;;;;;;;;;;6.01;69.63;103747.53;5037972;28;19925;-85
2022/03/18 09:38:50;;;;;;;;;;;;;;;6.09;69.11;103753.59;5017200;28;20372;-85
2022/03/18 09:41:16;;;;;;;;;;;;;;;6.05;69.19;103756.56;5036632;28;19925;-84
2022/03/18 09:43:42;;;;;;;;;;;;;;;5.90;70.16;103751.38;5037804;28;20027;-85
2022/03/18 09:46:09;;;;;;;;;;;;;;;5.99;69.98;103756.78;5022713;28;19964;-85
2022/03/18 09:48:34;;;;;;;;;;;;;;;6.09;70.31;103758.78;5037328;28;19917;-86
2022/03/18 09:50:59;;;;;;;;;;;;;;;5.94;70.52;103760.44;5030076;28;19971;-87
2022/03/18 09:53:25;;;;;;;;;;;;;;;5.97;70.95;103760.84;5037683;28;20302;-87
2022/03/18 09:55:53;;;;;;;;;;;;;;;6.01;70.58;103754.34;5028995;28;19917;-87
2022/03/18 09:58:19;;;;;;;;;;;;;;;6.20;69.94;103758.44;5050439;28;19925;-88
2022/03/18 10:00:50;;;;;;;;;;;;;;;6.05;69.99;103752.34;5058867;28;19916;-87
2022/03/18 10:03:17;;;;;;;;;;;;;;;6.10;70.22;103746.00;5043825;28;19971;-87
2022/03/18 10:05:58;;;;;;;;;;;;;;;5.98;70.02;103748.81;5056120;28;20043;-87
2022/03/18 10:08:23;;;;;;;;;;;;;;;6.08;70.30;103749.19;5044739;28;20037;-88
2022/03/18 10:10:49;;;;;;;;;;;;;;;6.14;70.45;103748.97;5035721;28;20414;-86
2022/03/18 10:13:16;;;;;;;;;;;;;;;6.10;70.56;103742.50;5034907;28;19964;-87
2022/03/18 10:15:42;;;;;;;;;;;;;;;6.15;70.05;103753.44;5033769;28;19921;-86
2022/03/18 10:18:12;;;;;;;;;;;;;;;6.19;69.99;103740.06;5023923;28;19929;-86
2022/03/18 10:20:39;;;;;;;;;;;;;;;6.20;70.34;103731.53;5039739;28;19928;-86
2022/03/18 10:23:17;;;;;;;;;;;;;;;6.17;70.51;103757.13;5044125;28;19927;-86
2022/03/18 10:25:55;;;;;;;;;;;;;;;6.28;69.63;103747.28;5050092;28;19924;-85
2022/03/18 10:28:35;;;;;;;;;;;;;;;6.24;70.21;103749.31;5040846;28;19921;-88
2022/03/18 10:31:14;;;;;;;;;;;;;;;6.14;69.70;103749.91;5017531;28;20513;-85
2022/03/18 10:39:22;;;;;;;;;;;;;;;6.21;69.73;103748.97;5039929;28;20440;-86
2022/03/18 10:41:48;;;;;;;;;;;;;;;6.31;69.43;103737.28;5056436;28;19916;-85
2022/03/18 10:44:15;;;;;;;;;;;;;;;6.27;69.69;103748.03;5038187;28;19935;-86
2022/03/18 10:46:41;;;;;;;;;;;;;;;6.30;70.02;103747.47;5037607;28;20313;-86
2022/03/18 10:49:07;;;;;;;;;;;;;;;6.31;69.70;103745.06;5037771;28;19924;-85
2022/03/18 10:51:33;;;;;;;;;;;;;;;6.38;69.53;103748.38;5022025;28;19956;-86
2022/03/18 10:53:59;;;;;;;;;;;;;;;6.39;69.88;103745.97;5039221;28;19925;-85
2022/03/18 10:56:26;;;;;;;;;;;;;;;6.52;69.19;103753.56;5039670;28;19916;-86
2022/03/18 10:58:54;;;;;;;;;;;;;;;6.28;69.73;103747.28;5020952;28;19920;-86
2022/03/18 11:01:19;;;;;;;;;;;;;;;6.48;68.86;103747.06;5039526;28;19920;-85
2022/03/18 11:03:45;;;;;;;;;;;;;;;6.26;69.24;103745.25;5053164;28;20656;-85
2022/03/18 11:06:11;;;;;;;;;;;;;;;6.50;68.92;103747.25;5018994;28;19924;-85
2022/03/18 11:08:44;;;;;;;;;;;;;;;6.50;69.07;103737.78;5035537;28;19921;-85
2022/03/18 11:11:14;;;;;;;;;;;;;;;6.48;69.30;103744.47;5035829;28;19917;-85
2022/03/18 11:13:42;;;;;;;;;;;;;;;6.44;69.08;103738.72;5053396;28;19939;-85
2022/03/18 11:16:09;;;;;;;;;;;;;;;6.31;69.52;103733.75;5035585;28;19917;-85
2022/03/18 11:18:35;;;;;;;;;;;;;;;6.22;69.70;103743.97;5034630;28;20007;-85
2022/03/18 11:21:03;;;;;;;;;;;;;;;6.08;70.06;103737.13;5035508;28;19929;-85
2022/03/18 11:23:28;;;;;;;;;;;;;;;6.16;70.23;103725.06;5019188;28;20333;-85
2022/03/18 11:25:55;;;;;;;;;;;;;;;6.17;69.33;103723.41;5035470;28;19924;-85
2022/03/18 11:28:21;;;;;;;;;;;;;;;6.24;69.67;103710.41;5035388;28;19924;-85
2022/03/18 11:30:47;;;;;;;;;;;;;;;6.34;69.10;103717.63;5053183;28;19917;-84
2022/03/18 11:33:15;;;;;;;;;;;;;;;6.37;69.23;103734.50;5035603;28;19917;-86
2022/03/18 11:35:47;;;;;;;;;;;;;;;6.27;69.20;103734.13;5053256;28;19925;-87
2022/03/18 11:38:14;;;;;;;;;;;;;;;6.45;66.98;103728.50;5052070;28;20379;-84
2022/03/18 11:41:01;;;;;;;;;;;;;;;6.46;68.30;103721.66;5035521;28;19917;-86
2022/03/18 11:43:33;;;;;;;;;;;;;;;6.38;68.76;103714.63;5053015;28;19924;-84
2022/03/18 11:46:17;;;;;;;;;;;;;;;6.09;70.00;103714.69;5035249;28;19956;-84
2022/03/18 11:48:44;;;;;;;;;;;;;;;6.35;68.32;103717.81;5052960;28;20019;-85
2022/03/18 11:51:21;;;;;;;;;;;;;;;6.49;67.48;103717.75;5035308;28;19917;-84
2022/03/18 11:53:48;;;;;;;;;;;;;;;6.48;67.55;103705.53;5052742;28;19912;-82
2022/03/18 11:56:14;;;;;;;;;;;;;;;6.58;68.49;103701.41;5052891;28;19916;-83
2022/03/18 11:58:39;;;;;;;;;;;;;;;6.69;68.56;103703.59;5052837;28;19920;-84
2022/03/18 12:01:04;;;;;;;;;;;;;;;6.70;68.63;103695.97;5035103;28;19917;-83
2022/03/18 12:03:34;;;;;;;;;;;;;;;6.71;68.33;103702.09;5034535;28;20011;-86
2022/03/18 12:06:00;;;;;;;;;;;;;;;6.67;68.32;103707.69;5052840;28;19917;-84
2022/03/18 12:08:44;;;;;;;;;;;;;;;6.71;68.71;103707.31;5035006;28;19981;-85
2022/03/18 12:11:25;;;;;;;;;;;;;;;6.74;68.80;103715.44;5052765;28;19965;-84
2022/03/18 12:13:50;;;;;;;;;;;;;;;6.77;68.79;103720.97;5052663;28;19916;-86
2022/03/18 12:16:18;;;;;;;;;;;;;;;6.76;68.47;103720.81;5034676;28;19917;-84
2022/03/18 12:18:44;;;;;;;;;;;;;;;6.65;69.27;103715.28;5052374;28;19917;-86
2022/03/18 12:21:09;;;;;;;;;;;;;;;6.76;68.92;103719.13;5052725;28;19924;-86
2022/03/18 12:23:35;;;;;;;;;;;;;;;6.85;68.78;103729.66;5035044;28;19939;-87
2022/03/18 12:26:07;;;;;;;;;;;;;;;6.71;69.47;103717.69;5034911;28;19917;-86
2022/03/18 12:28:45;;;;;;;;;;;;;;;6.76;68.78;103715.63;5034758;28;19953;-86
2022/03/18 12:31:16;;;;;;;;;;;;;;;6.82;68.87;103712.06;5052454;28;19917;-87
2022/03/18 12:33:43;;;;;;;;;;;;;;;6.75;68.91;103719.88;5034582;28;19920;-87
2022/03/18 12:36:08;;;;;;;;;;;;;;;6.78;68.91;103716.72;5017830;28;19917;-87
2022/03/18 12:38:33;;;;;;;;;;;;;;;6.83;68.19;103720.78;5017941;28;20446;-86
2022/03/18 12:40:59;;;;;;;;;;;;;;;6.80;68.55;103707.44;5034464;28;20397;-87
2022/03/18 12:43:25;;;;;;;;;;;;;;;6.84;67.71;103715.78;5018223;28;19939;-86
2022/03/18 12:45:51;;;;;;;;;;;;;;;6.81;67.30;103710.19;5034691;28;19960;-86
2022/03/18 12:48:17;;;;;;;;;;;;;;;6.77;68.32;103707.06;5034637;28;19924;-86
2022/03/18 12:50:45;;;;;;;;;;;;;;;6.80;67.48;103708.38;5034547;28;19917;-87
2022/03/18 12:53:11;;;;;;;;;;;;;;;6.83;67.13;103705.19;5034539;28;19946;-86
2022/03/18 12:55:36;;;;;;;;;;;;;;;6.64;67.17;103710.81;5052363;28;19964;-86
2022/03/18 12:58:04;;;;;;;;;;;;;;;6.82;67.57;103706.88;5017793;28;19966;-85
2022/03/18 13:00:36;;;;;;;;;;;;;;;6.83;67.63;103700.91;5018321;28;19923;-87
2022/03/18 13:03:06;;;;;;;;;;;;;;;6.80;67.81;103699.66;5017934;28;20318;-87
2022/03/18 13:05:32;;;;;;;;;;;;;;;6.83;66.56;103698.31;5017978;28;19960;-86
2022/03/18 13:08:00;;;;;;;;;;;;;;;6.84;66.25;103691.47;5017834;28;19952;-87
2022/03/18 13:10:27;;;;;;;;;;;;;;;6.81;67.16;103704.09;5034754;28;19923;-88
2022/03/18 13:12:53;;;;;;;;;;;;;;;6.84;67.89;103715.78;5034672;28;19916;-88